createdAt,value
2022-08-26T00:01:56.862Z,94510.28
2022-08-26T00:04:25.636Z,94496.53
2022-08-26T00:06:55.601Z,94511.88
2022-08-26T00:09:24.625Z,94510.38
2022-08-26T00:11:52.521Z,94501.97
2022-08-26T00:14:19.514Z,94497.22
2022-08-26T00:16:47.262Z,94511.22
2022-08-26T00:19:18.383Z,94503.63
2022-08-26T00:21:46.239Z,94499.50
2022-08-26T00:24:15.903Z,94492.38
2022-08-26T00:26:42.693Z,94494.97
2022-08-26T00:29:10.086Z,94495.53
2022-08-26T00:31:37.918Z,94495.28
2022-08-26T00:34:06.122Z,94474.31
2022-08-26T00:36:32.941Z,94472.44
2022-08-26T00:38:59.767Z,94495.25
2022-08-26T00:41:28.994Z,94512.97
2022-08-26T00:43:56.122Z,94455.47
2022-08-26T00:46:31.777Z,94501.44
2022-08-26T00:49:22.106Z,94519.44
2022-08-26T00:51:54.671Z,94501.22
2022-08-26T00:54:26.949Z,94479.84
2022-08-26T00:57:08.754Z,94498.38
2022-08-26T00:59:46.515Z,94497.47
2022-08-26T01:02:20.817Z,94506.09
2022-08-26T01:04:55.911Z,94502.19
2022-08-26T01:07:26.203Z,94476.69
2022-08-26T01:09:55.753Z,94471.56
2022-08-26T01:12:25.075Z,94491.97
2022-08-26T01:14:52.006Z,94476.69
2022-08-26T01:17:19.090Z,94495.25
2022-08-26T01:19:50.165Z,94496.94
2022-08-26T01:22:26.642Z,94503.69
2022-08-26T01:24:59.085Z,94520.56
2022-08-26T01:27:32.539Z,94496.94
2022-08-26T01:30:01.681Z,94500.28
2022-08-26T01:32:31.826Z,94487.88
2022-08-26T01:34:59.355Z,94492.84
2022-08-26T01:37:35.366Z,94492.09
2022-08-26T01:40:07.792Z,94485.44
2022-08-26T01:42:34.844Z,94485.38
2022-08-26T01:45:15.253Z,94482.03
2022-08-26T01:47:43.301Z,94498.28
2022-08-26T01:50:15.744Z,94486.31
2022-08-26T01:52:56.113Z,94477.72
2022-08-26T01:55:32.068Z,94497.50
2022-08-26T01:58:05.242Z,94488.03
2022-08-26T02:00:34.381Z,94489.25
2022-08-26T02:03:18.148Z,94496.69
2022-08-26T02:05:59.157Z,94503.16
2022-08-26T02:08:40.901Z,94492.69
2022-08-26T02:11:08.618Z,94469.63
2022-08-26T02:13:41.089Z,94469.53
2022-08-26T02:16:09.140Z,94484.97
2022-08-26T02:18:38.717Z,94490.84
2022-08-26T02:21:06.938Z,94503.22
2022-08-26T02:23:34.089Z,94510.31
2022-08-26T02:26:01.090Z,94495.88
2022-08-26T02:28:34.612Z,94501.72
2022-08-26T02:31:02.659Z,94482.88
2022-08-26T02:33:30.435Z,94495.38
2022-08-26T02:35:57.559Z,94466.97
2022-08-26T02:38:24.448Z,94491.19
2022-08-26T02:40:51.255Z,94493.06
2022-08-26T02:43:18.175Z,94506.69
2022-08-26T02:45:50.817Z,94506.75
2022-08-26T02:48:21.276Z,94489.09
2022-08-26T02:50:49.157Z,94495.19
2022-08-26T02:53:16.861Z,94475.81
2022-08-26T02:55:51.379Z,94488.88
2022-08-26T02:58:18.335Z,94502.16
2022-08-26T03:00:53.435Z,94488.28
2022-08-26T03:03:23.564Z,94474.19
2022-08-26T03:05:54.073Z,94471.75
2022-08-26T03:08:21.110Z,94476.16
2022-08-26T03:10:48.366Z,94474.63
2022-08-26T03:13:16.784Z,94475.59
2022-08-26T03:15:44.277Z,94479.47
2022-08-26T03:18:13.515Z,94477.13
2022-08-26T03:20:40.611Z,94474.69
2022-08-26T03:23:07.853Z,94470.09
2022-08-26T03:25:36.047Z,94463.19
2022-08-26T03:28:03.746Z,94459.34
2022-08-26T03:30:45.142Z,94478.16
2022-08-26T03:33:14.250Z,94448.66
2022-08-26T03:35:43.600Z,94462.84
2022-08-26T03:38:11.114Z,94478.69
2022-08-26T03:40:38.762Z,94475.56
2022-08-26T03:43:09.701Z,94459.84
2022-08-26T03:45:37.844Z,94454.41
2022-08-26T03:48:05.593Z,94463.22
2022-08-26T03:50:34.317Z,94463.97
2022-08-26T03:53:03.891Z,94447.34
2022-08-26T03:55:32.810Z,94458.75
2022-08-26T03:58:01.143Z,94462.81
2022-08-26T04:00:28.959Z,94452.38
2022-08-26T04:02:56.301Z,94456.53
2022-08-26T04:05:23.368Z,94459.44
2022-08-26T04:07:51.436Z,94452.13
2022-08-26T04:10:28.962Z,94464.66
2022-08-26T04:12:58.988Z,94479.38
2022-08-26T04:15:26.995Z,94475.75
2022-08-26T04:17:54.020Z,94476.97
2022-08-26T04:20:22.790Z,94459.13
2022-08-26T04:22:50.646Z,94464.03
2022-08-26T04:25:18.608Z,94475.41
2022-08-26T04:27:47.386Z,94453.22
2022-08-26T04:30:16.641Z,94469.88
2022-08-26T04:32:43.945Z,94477.66
2022-08-26T04:35:10.961Z,94473.00
2022-08-26T04:37:38.191Z,94482.78
2022-08-26T04:40:05.954Z,94465.75
2022-08-26T04:42:33.403Z,94465.88
2022-08-26T04:45:01.382Z,94470.34
2022-08-26T04:47:32.631Z,94463.38
2022-08-26T04:50:01.948Z,94478.38
2022-08-26T04:52:29.111Z,94461.53
2022-08-26T04:54:57.887Z,94470.09
2022-08-26T04:57:24.661Z,94468.13
2022-08-26T04:59:51.454Z,94478.13
2022-08-26T05:02:18.310Z,94483.47
2022-08-26T05:04:45.959Z,94462.66
2022-08-26T05:07:12.950Z,94460.75
2022-08-26T05:09:40.802Z,94484.00
2022-08-26T05:12:08.289Z,94478.50
2022-08-26T05:14:36.042Z,94469.09
2022-08-26T05:17:03.224Z,94457.66
2022-08-26T05:19:31.671Z,94476.59
2022-08-26T05:21:59.487Z,94479.19
2022-08-26T05:24:26.611Z,94481.88
2022-08-26T05:26:54.147Z,94460.22
2022-08-26T05:29:24.137Z,94483.94
2022-08-26T05:31:52.506Z,94500.34
2022-08-26T05:34:20.878Z,94468.63
2022-08-26T05:36:48.164Z,94468.78
2022-08-26T05:39:15.227Z,94458.44
2022-08-26T05:41:43.225Z,94488.03
2022-08-26T05:44:14.462Z,94487.91
2022-08-26T05:46:42.090Z,94483.66
2022-08-26T05:49:13.123Z,94484.97
2022-08-26T05:51:41.923Z,94518.16
2022-08-26T05:54:10.422Z,94490.13
2022-08-26T05:56:39.137Z,94497.81
2022-08-26T05:59:06.549Z,94496.69
2022-08-26T06:01:43.653Z,94522.69
2022-08-26T06:04:11.383Z,94512.53
2022-08-26T06:06:41.590Z,94523.31
2022-08-26T06:09:11.451Z,94471.72
2022-08-26T06:11:39.044Z,94482.81
2022-08-26T06:14:07.962Z,94512.75
2022-08-26T06:16:38.670Z,94506.53
2022-08-26T06:19:11.462Z,94513.19
2022-08-26T06:21:40.550Z,94510.16
2022-08-26T06:24:29.161Z,94495.81
2022-08-26T06:26:59.078Z,94487.47
2022-08-26T06:29:27.830Z,94492.69
2022-08-26T06:31:56.439Z,94517.69
2022-08-26T06:34:29.679Z,94501.19
2022-08-26T06:36:58.666Z,94509.03
2022-08-26T06:39:25.631Z,94498.94
2022-08-26T06:41:52.545Z,94513.25
2022-08-26T06:44:20.262Z,94481.72
2022-08-26T06:46:50.546Z,94484.06
2022-08-26T06:49:18.322Z,94497.19
2022-08-26T06:51:53.445Z,94486.91
2022-08-26T06:54:20.469Z,94475.47
2022-08-26T06:56:47.944Z,94467.34
2022-08-26T06:59:16.097Z,94480.97
2022-08-26T07:01:46.701Z,94494.19
2022-08-26T07:04:20.317Z,94469.69
2022-08-26T07:06:52.684Z,94493.25
2022-08-26T07:09:22.433Z,94482.75
2022-08-26T07:11:49.713Z,94490.59
2022-08-26T07:14:19.290Z,94520.31
2022-08-26T07:16:48.490Z,94499.31
2022-08-26T07:19:16.650Z,94507.81
2022-08-26T07:21:44.201Z,94502.19
2022-08-26T07:24:11.364Z,94514.34
2022-08-26T07:26:43.095Z,94527.94
2022-08-26T07:29:12.572Z,94523.56
2022-08-26T07:31:42.375Z,94522.09
2022-08-26T07:34:13.605Z,94507.63
2022-08-26T07:36:41.502Z,94489.75
2022-08-26T07:39:08.942Z,94490.50
2022-08-26T07:41:36.661Z,94514.38
2022-08-26T07:44:04.373Z,94524.75
2022-08-26T07:46:31.653Z,94525.13
2022-08-26T07:48:59.142Z,94506.94
2022-08-26T07:51:27.183Z,94503.84
2022-08-26T07:53:55.218Z,94493.94
2022-08-26T07:56:23.396Z,94513.59
2022-08-26T07:58:54.020Z,94504.72
2022-08-26T08:01:23.875Z,94530.34
2022-08-26T08:03:51.832Z,94520.34
2022-08-26T08:06:27.422Z,94521.59
2022-08-26T08:08:56.252Z,94506.66
2022-08-26T08:11:23.835Z,94495.38
2022-08-26T08:13:56.418Z,94495.72
2022-08-26T08:16:28.540Z,94492.13
2022-08-26T08:18:59.563Z,94496.13
2022-08-26T08:21:28.942Z,94497.34
2022-08-26T08:24:01.849Z,94500.13
2022-08-26T08:26:30.594Z,94493.06
2022-08-26T08:28:58.150Z,94539.88
2022-08-26T08:31:55.945Z,94479.09
2022-08-26T08:34:15.298Z,94502.50
2022-08-26T08:36:42.299Z,94530.41
2022-08-26T08:39:09.481Z,94518.97
2022-08-26T08:42:04.257Z,94517.13
2022-08-26T08:44:31.898Z,94518.97
2022-08-26T08:47:11.845Z,94504.16
2022-08-26T08:49:39.326Z,94521.25
2022-08-26T08:52:25.692Z,94532.09
2022-08-26T08:54:55.524Z,94465.53
2022-08-26T08:57:42.182Z,94488.31
2022-08-26T09:00:22.407Z,94509.09
2022-08-26T09:03:10.881Z,94519.63
2022-08-26T09:05:48.702Z,94516.63
2022-08-26T09:08:27.472Z,94510.50
2022-08-26T09:10:59.435Z,94530.16
2022-08-26T09:13:27.598Z,94492.63
2022-08-26T09:16:10.496Z,94512.94
2022-08-26T09:19:07.773Z,94517.41
2022-08-26T09:21:34.597Z,94513.97
2022-08-26T09:24:01.562Z,94509.50
2022-08-26T09:26:40.997Z,94518.28
2022-08-26T09:32:12.970Z,94503.75
2022-08-26T09:35:04.683Z,94475.25
2022-08-26T09:40:27.009Z,94475.19
2022-08-26T09:43:22.785Z,94473.03
2022-08-26T09:46:18.094Z,94488.13
2022-08-26T09:48:45.542Z,94490.16
2022-08-26T09:51:24.419Z,94461.19
2022-08-26T09:53:54.901Z,94493.00
2022-08-26T09:56:27.717Z,94469.84
2022-08-26T09:58:56.787Z,94469.03
2022-08-26T10:01:23.593Z,94463.94
2022-08-26T10:03:51.439Z,94463.66
2022-08-26T10:06:20.990Z,94429.41
2022-08-26T10:09:08.921Z,94458.75
2022-08-26T10:11:45.339Z,94444.25
2022-08-26T10:14:24.878Z,94475.91
2022-08-26T10:16:59.639Z,94491.69
2022-08-26T10:19:48.285Z,94457.34
2022-08-26T10:22:37.366Z,94454.09
2022-08-26T10:25:08.121Z,94421.47
2022-08-26T10:27:53.703Z,94454.50
2022-08-26T10:30:24.681Z,94442.13
2022-08-26T10:33:10.971Z,94404.78
2022-08-26T10:35:52.945Z,94435.72
2022-08-26T10:38:30.485Z,94406.69
2022-08-26T10:41:11.354Z,94427.50
2022-08-26T10:43:46.638Z,94435.53
2022-08-26T10:46:23.927Z,94442.00
2022-08-26T10:49:15.502Z,94410.34
2022-08-26T10:51:57.947Z,94402.00
2022-08-26T10:54:39.211Z,94400.84
2022-08-26T10:57:15.243Z,94416.44
2022-08-26T11:00:31.291Z,94437.75
2022-08-26T11:03:21.898Z,94405.91
2022-08-26T11:06:18.583Z,94406.91
2022-08-26T11:08:50.317Z,94405.19
2022-08-26T11:11:46.753Z,94413.81
2022-08-26T11:14:28.693Z,94421.28
2022-08-26T11:16:58.937Z,94376.63
2022-08-26T11:20:01.543Z,94387.34
2022-08-26T11:22:38.106Z,94395.66
2022-08-26T11:25:19.829Z,94397.66
2022-08-26T11:27:52.775Z,94379.72
2022-08-26T11:30:20.300Z,94406.78
2022-08-26T11:32:53.407Z,94404.66
2022-08-26T11:35:20.556Z,94399.19
2022-08-26T11:37:51.593Z,94371.88
2022-08-26T11:40:22.668Z,94371.88
2022-08-26T11:42:57.309Z,94387.84
2022-08-26T11:45:40.068Z,94371.53
2022-08-26T11:48:22.785Z,94384.97
2022-08-26T11:51:03.032Z,94323.38
2022-08-26T11:53:32.715Z,94343.53
2022-08-26T11:56:04.454Z,94357.44
2022-08-26T11:58:32.095Z,94363.63
2022-08-26T12:01:09.754Z,94324.59
2022-08-26T12:03:47.226Z,94348.13
2022-08-26T12:06:22.854Z,94364.19
2022-08-26T12:08:50.562Z,94381.13
2022-08-26T12:11:27.429Z,94355.13
2022-08-26T12:14:02.176Z,94344.44
2022-08-26T12:16:39.494Z,94349.00
2022-08-26T12:19:27.771Z,94360.19
2022-08-26T12:22:02.307Z,94343.94
2022-08-26T12:24:29.657Z,94338.66
2022-08-26T12:27:17.664Z,94327.81
2022-08-26T12:29:48.500Z,94329.25
2022-08-26T12:32:18.515Z,94353.53
2022-08-26T12:34:49.081Z,94351.28
2022-08-26T12:37:16.564Z,94358.44
2022-08-26T12:39:45.901Z,94350.91
2022-08-26T12:42:12.595Z,94351.06
2022-08-26T12:44:53.862Z,94328.69
2022-08-26T12:47:41.950Z,94379.94
2022-08-26T12:50:22.261Z,94365.22
2022-08-26T12:53:05.186Z,94363.22
2022-08-26T12:55:31.933Z,94375.34
2022-08-26T12:58:16.710Z,94368.41
2022-08-26T13:00:46.591Z,94310.22
2022-08-26T13:03:28.366Z,94279.16
2022-08-26T13:06:15.588Z,94254.47
2022-08-26T13:08:46.018Z,94285.06
2022-08-26T13:11:20.173Z,94285.00
2022-08-26T13:13:53.608Z,94277.50
2022-08-26T13:16:22.061Z,94293.25
2022-08-26T13:18:51.870Z,94292.78
2022-08-26T13:21:25.199Z,94285.41
2022-08-26T13:23:52.650Z,94279.94
2022-08-26T13:26:20.442Z,94275.84
2022-08-26T13:28:48.623Z,94285.84
2022-08-26T13:31:31.014Z,94271.91
2022-08-26T13:33:58.063Z,94290.09
2022-08-26T13:36:24.885Z,94287.19
2022-08-26T13:38:52.048Z,94275.06
2022-08-26T13:41:29.042Z,94289.09
2022-08-26T13:43:56.163Z,94297.41
2022-08-26T13:46:23.099Z,94293.16
2022-08-26T13:48:49.863Z,94303.56
2022-08-26T13:51:18.963Z,94340.47
2022-08-26T13:53:46.325Z,94334.66
2022-08-26T13:56:13.414Z,94338.13
2022-08-26T13:58:40.338Z,94335.91
2022-08-26T14:01:08.786Z,94362.41
2022-08-26T14:03:36.100Z,94347.56
2022-08-26T14:06:03.165Z,94336.22
2022-08-26T14:08:30.811Z,94338.31
2022-08-26T14:10:58.277Z,94333.13
2022-08-26T14:13:25.318Z,94323.19
2022-08-26T14:15:53.231Z,94320.88
2022-08-26T14:18:28.066Z,94323.13
2022-08-26T14:20:55.734Z,94337.31
2022-08-26T14:23:22.731Z,94322.59
2022-08-26T14:25:50.116Z,94313.03
2022-08-26T14:28:17.376Z,94312.44
2022-08-26T14:30:49.335Z,94313.56
2022-08-26T14:33:17.421Z,94341.94
2022-08-26T14:35:47.940Z,94311.16
2022-08-26T14:38:17.268Z,94331.78
2022-08-26T14:40:45.146Z,94325.09
2022-08-26T14:43:15.280Z,94326.28
2022-08-26T14:45:45.643Z,94304.91
2022-08-26T14:48:12.573Z,94317.66
2022-08-26T14:50:39.325Z,94341.06
2022-08-26T14:53:24.897Z,94330.22
2022-08-26T14:55:51.682Z,94303.03
2022-08-26T14:58:18.549Z,94305.66
2022-08-26T15:00:45.303Z,94294.22
2022-08-26T15:03:12.623Z,94308.22
2022-08-26T15:05:47.970Z,94303.97
2022-08-26T15:08:18.902Z,94257.28
2022-08-26T15:10:46.933Z,94286.84
2022-08-26T15:13:13.861Z,94243.06
2022-08-26T15:15:40.698Z,94237.59
2022-08-26T15:18:07.939Z,94229.09
2022-08-26T15:20:34.990Z,94232.69
2022-08-26T15:23:06.864Z,94249.00
2022-08-26T15:25:33.967Z,94235.69
2022-08-26T15:28:00.874Z,94228.72
2022-08-26T15:30:27.678Z,94217.81
2022-08-26T15:32:54.397Z,94214.06
2022-08-26T15:35:21.250Z,94218.16
2022-08-26T15:37:48.318Z,94237.56
2022-08-26T15:40:15.496Z,94226.59
2022-08-26T15:42:42.285Z,94222.50
2022-08-26T15:45:09.566Z,94217.63
2022-08-26T15:48:00.733Z,94212.03
2022-08-26T15:50:25.427Z,94215.41
2022-08-26T15:52:52.267Z,94201.78
2022-08-26T15:55:19.093Z,94197.03
2022-08-26T15:57:49.347Z,94196.69
2022-08-26T16:00:17.256Z,94193.75
2022-08-26T16:02:44.382Z,94211.59
2022-08-26T16:05:11.179Z,94211.34
2022-08-26T16:07:37.992Z,94191.25
2022-08-26T16:10:05.377Z,94196.44
2022-08-26T16:12:32.464Z,94198.38
2022-08-26T16:14:59.506Z,94176.47
2022-08-26T16:17:26.276Z,94200.50
2022-08-26T16:19:53.031Z,94203.97
2022-08-26T16:22:20.093Z,94206.78
2022-08-26T16:24:49.248Z,94192.63
2022-08-26T16:27:16.191Z,94181.84
2022-08-26T16:29:43.114Z,94185.34
2022-08-26T16:32:09.937Z,94203.28
2022-08-26T16:34:36.670Z,94206.44
2022-08-26T16:37:04.348Z,94200.63
2022-08-26T16:39:31.274Z,94194.75
2022-08-26T16:41:58.348Z,94190.19
2022-08-26T16:44:28.038Z,94204.44
2022-08-26T16:46:58.587Z,94204.16
2022-08-26T16:49:25.618Z,94201.88
2022-08-26T16:51:52.690Z,94189.31
2022-08-26T16:54:19.509Z,94203.69
2022-08-26T16:56:46.255Z,94205.22
2022-08-26T16:59:13.554Z,94207.06
2022-08-26T17:01:40.432Z,94228.28
2022-08-26T17:04:07.535Z,94217.78
2022-08-26T17:06:34.577Z,94227.94
2022-08-26T17:09:01.452Z,94209.00
2022-08-26T17:11:28.490Z,94211.06
2022-08-26T17:13:55.320Z,94209.41
2022-08-26T17:16:26.701Z,94207.66
2022-08-26T17:18:56.156Z,94234.09
2022-08-26T17:21:24.061Z,94222.31
2022-08-26T17:23:51.847Z,94235.69
2022-08-26T17:26:18.606Z,94229.16
2022-08-26T17:28:45.463Z,94214.56
2022-08-26T17:31:13.229Z,94219.44
2022-08-26T17:33:41.197Z,94226.28
2022-08-26T17:36:09.545Z,94207.59
2022-08-26T17:38:38.008Z,94234.28
2022-08-26T17:41:12.940Z,94225.69
2022-08-26T17:43:40.210Z,94201.88
2022-08-26T17:46:09.576Z,94203.06
2022-08-26T17:48:38.243Z,94193.53
2022-08-26T17:51:11.142Z,94209.56
2022-08-26T17:53:38.697Z,94205.16
2022-08-26T17:56:16.395Z,94210.31
2022-08-26T17:58:51.417Z,94217.88
2022-08-26T18:01:20.588Z,94213.81
2022-08-26T18:03:47.941Z,94215.97
2022-08-26T18:06:15.290Z,94219.34
2022-08-26T18:08:42.575Z,94208.94
2022-08-26T18:11:11.439Z,94232.00
2022-08-26T18:13:38.982Z,94236.78
2022-08-26T18:16:14.632Z,94236.97
2022-08-26T18:18:42.280Z,94234.34
2022-08-26T18:21:18.083Z,94245.22
2022-08-26T18:23:46.611Z,94244.81
2022-08-26T18:26:31.963Z,94241.22
2022-08-26T18:28:59.681Z,94237.03
2022-08-26T18:31:27.142Z,94255.69
2022-08-26T18:33:54.282Z,94273.59
2022-08-26T18:36:29.966Z,94278.75
2022-08-26T18:38:57.522Z,94252.78
2022-08-26T18:41:27.480Z,94265.13
2022-08-26T18:43:54.866Z,94273.06
2022-08-26T18:46:25.172Z,94265.91
2022-08-26T18:48:55.190Z,94265.72
2022-08-26T18:51:33.280Z,94248.31
2022-08-26T18:54:02.548Z,94251.81
2022-08-26T18:56:30.603Z,94250.56
2022-08-26T18:58:59.020Z,94268.97
2022-08-26T19:01:27.887Z,94278.66
2022-08-26T19:04:00.034Z,94270.84
2022-08-26T19:06:28.903Z,94280.84
2022-08-26T19:08:55.830Z,94297.56
2022-08-26T19:11:31.538Z,94250.25
2022-08-26T19:13:58.865Z,94287.16
2022-08-26T19:16:27.758Z,94294.28
2022-08-26T19:18:55.839Z,94278.06
2022-08-26T19:21:23.507Z,94269.47
2022-08-26T19:23:50.859Z,94309.78
2022-08-26T19:26:18.541Z,94295.94
2022-08-26T19:28:46.018Z,94296.63
2022-08-26T19:31:13.065Z,94299.53
2022-08-26T19:33:43.121Z,94282.03
2022-08-26T19:36:16.267Z,94309.22
2022-08-26T19:38:45.241Z,94291.00
2022-08-26T19:41:15.200Z,94303.13
2022-08-26T19:43:42.943Z,94322.72
2022-08-26T19:46:13.409Z,94314.44
2022-08-26T19:48:44.391Z,94358.53
2022-08-26T19:51:20.902Z,94345.59
2022-08-26T19:53:49.331Z,94357.78
2022-08-26T19:56:16.846Z,94352.00
2022-08-26T19:58:44.613Z,94365.00
2022-08-26T20:01:12.496Z,94357.84
2022-08-26T20:03:41.321Z,94406.94
2022-08-26T20:06:10.911Z,94395.75
2022-08-26T20:08:39.835Z,94379.75
2022-08-26T20:11:11.167Z,94401.22
2022-08-26T20:13:40.191Z,94420.97
2022-08-26T20:16:08.236Z,94303.28
2022-08-26T20:18:54.012Z,94351.06
2022-08-26T20:21:27.154Z,94377.78
2022-08-26T20:23:59.095Z,94350.06
2022-08-26T20:26:28.301Z,94343.97
2022-08-26T20:28:55.896Z,94360.38
2022-08-26T20:31:24.274Z,94373.94
2022-08-26T20:33:51.911Z,94333.66
2022-08-26T20:36:21.201Z,94373.50
2022-08-26T20:38:49.723Z,94324.88
2022-08-26T20:41:18.667Z,94334.38
2022-08-26T20:43:47.130Z,94342.50
2022-08-26T20:46:18.035Z,94320.41
2022-08-26T20:48:49.979Z,94329.41
2022-08-26T20:51:18.053Z,94370.81
2022-08-26T20:53:45.446Z,94381.03
2022-08-26T20:56:14.396Z,94365.25
2022-08-26T20:58:42.029Z,94361.97
2022-08-26T21:01:16.954Z,94378.25
2022-08-26T21:03:43.808Z,94366.31
2022-08-26T21:06:10.639Z,94380.16
2022-08-26T21:08:42.519Z,94360.59
2022-08-26T21:11:11.614Z,94373.38
2022-08-26T21:13:48.572Z,94358.53
2022-08-26T21:16:26.363Z,94386.22
2022-08-26T21:18:53.184Z,94408.69
2022-08-26T21:21:25.205Z,94423.69
2022-08-26T21:23:52.318Z,94428.88
2022-08-26T21:26:19.275Z,94436.19
2022-08-26T21:28:46.429Z,94425.47
2022-08-26T21:31:16.972Z,94426.59
2022-08-26T21:33:44.537Z,94428.13
2022-08-26T21:36:13.158Z,94430.78
2022-08-26T21:38:41.124Z,94434.84
2022-08-26T21:41:19.895Z,94434.72
2022-08-26T21:43:48.601Z,94388.63
2022-08-26T21:46:18.920Z,94403.09
2022-08-26T21:49:07.945Z,94397.25
2022-08-26T21:51:41.838Z,94390.63
2022-08-26T21:54:11.385Z,94397.25
2022-08-26T21:56:44.149Z,94396.56
2022-08-26T21:59:11.254Z,94392.50
2022-08-26T22:01:38.271Z,94358.25
2022-08-26T22:04:07.157Z,94406.47
2022-08-26T22:06:39.223Z,94379.59
2022-08-26T22:09:06.085Z,94374.38
2022-08-26T22:11:32.882Z,94370.84
2022-08-26T22:13:59.672Z,94371.94
2022-08-26T22:16:28.768Z,94390.44
2022-08-26T22:18:55.742Z,94391.75
2022-08-26T22:21:24.546Z,94386.72
2022-08-26T22:23:51.923Z,94376.00
2022-08-26T22:26:27.298Z,94401.06
2022-08-26T22:28:55.619Z,94404.34
2022-08-26T22:31:29.063Z,94404.75
2022-08-26T22:34:11.791Z,94407.28
2022-08-26T22:36:43.648Z,94401.75
2022-08-26T22:39:13.829Z,94414.28
2022-08-26T22:41:42.099Z,94405.72
2022-08-26T22:44:10.667Z,94421.06
2022-08-26T22:46:38.650Z,94418.53
2022-08-26T22:49:07.567Z,94405.41
2022-08-26T22:51:34.636Z,94409.34
2022-08-26T22:54:01.630Z,94404.47
2022-08-26T22:56:28.426Z,94401.56
2022-08-26T22:58:55.174Z,94419.63
2022-08-26T23:01:22.229Z,94425.00
2022-08-26T23:03:49.157Z,94432.72
2022-08-26T23:06:15.986Z,94428.03
2022-08-26T23:08:45.283Z,94403.41
2022-08-26T23:11:13.654Z,94397.03
2022-08-26T23:13:41.085Z,94419.88
2022-08-26T23:16:11.113Z,94416.94
2022-08-26T23:18:40.037Z,94416.94
2022-08-26T23:21:07.322Z,94426.78
2022-08-26T23:23:35.377Z,94435.06
2022-08-26T23:26:05.951Z,94435.03
2022-08-26T23:28:34.101Z,94443.13
2022-08-26T23:31:00.883Z,94445.75
2022-08-26T23:33:47.631Z,94448.97
2022-08-26T23:36:17.988Z,94452.94
2022-08-26T23:38:52.354Z,94450.94
2022-08-26T23:41:22.450Z,94430.94
2022-08-26T23:43:50.020Z,94462.59
2022-08-26T23:46:17.765Z,94486.31
2022-08-26T23:48:45.023Z,94470.16
2022-08-26T23:51:30.646Z,94483.78
2022-08-26T23:53:57.992Z,94480.00
2022-08-26T23:56:25.570Z,94461.53
2022-08-26T23:58:54.017Z,94465.22
